Time;durP1;ratioP1;P1;durP2;ratioP2;P2;SDS_P1;SDS_P2;PMS_P1;PMS_P2;Temp;Humidity;BMP_temperature;BMP_pressure;BME280_temperature;BME280_humidity;BME280_pressure;Samples;Min_cycle;Max_cycle;Signal;HPM_P1;HPM_P2
2020/12/21 00:01:41;;;;;;;;;;;;;;;9.69;59.02;101833.81;6024437;23;96510;-85
2020/12/21 00:04:09;;;;;;;;;;;;;;;9.84;58.54;101838.00;6022047;23;99160;-90
2020/12/21 00:06:35;;;;;;;;;;;;;;;10.10;57.98;101837.59;6023802;23;99789;-92
2020/12/21 00:09:13;;;;;;;;;;;;;;;9.80;58.59;101831.88;6057987;23;95919;-82
2020/12/21 00:11:58;;;;;;;;;;;;;;;9.60;59.33;101832.19;6054848;23;96068;-91
2020/12/21 00:14:38;;;;;;;;;;;;;;;9.59;59.03;101833.06;6052788;23;99091;-90
2020/12/21 00:17:09;;;;;;;;;;;;;;;9.47;60.20;101842.91;6028730;23;98129;-91
2020/12/21 00:19:44;;;;;;;;;;;;;;;9.48;59.92;101837.63;6058180;23;96502;-92
2020/12/21 00:22:14;;;;;;;;;;;;;;;9.34;60.61;101833.44;6060883;23;95930;-89
2020/12/21 00:24:43;;;;;;;;;;;;;;;9.66;59.75;101838.25;6059798;23;97217;-84
2020/12/21 00:30:04;;;;;;;;;;;;;;;9.50;60.02;101851.69;6049683;23;96701;-92
2020/12/21 00:35:13;;;;;;;;;;;;;;;9.70;59.43;101848.78;6048249;23;99581;-91
2020/12/21 00:37:41;;;;;;;;;;;;;;;9.64;59.84;101838.31;6048208;23;100243;-91
2020/12/21 00:42:49;;;;;;;;;;;;;;;9.83;59.38;101846.81;6046634;23;96757;-90
2020/12/21 00:45:24;;;;;;;;;;;;;;;9.78;59.44;101851.31;6050462;23;100143;-91
2020/12/21 00:48:17;;;;;;;;;;;;;;;9.56;60.30;101854.25;6050553;23;96635;-91
2020/12/21 00:54:02;;;;;;;;;;;;;;;9.76;59.96;101861.88;6050355;23;96248;-91
2020/12/21 00:56:36;;;;;;;;;;;;;;;9.89;58.95;101860.81;6049967;23;99478;-91
2020/12/21 00:59:07;;;;;;;;;;;;;;;9.65;60.01;101874.31;6026557;23;97507;-92
2020/12/21 01:04:19;;;;;;;;;;;;;;;9.64;59.98;101869.97;6051263;23;96537;-91
2020/12/21 01:09:26;;;;;;;;;;;;;;;9.63;60.49;101862.94;6049232;23;96600;-91
2020/12/21 01:11:59;;;;;;;;;;;;;;;9.43;61.11;101867.63;6052560;23;96713;-90
2020/12/21 01:19:54;;;;;;;;;;;;;;;9.60;60.78;101868.25;6047431;23;99369;-91
2020/12/21 01:30:31;;;;;;;;;;;;;;;9.62;60.63;101863.84;6055411;23;98464;-91
2020/12/21 01:38:26;;;;;;;;;;;;;;;9.77;60.26;101863.63;6059410;23;96707;-91
2020/12/21 01:40:53;;;;;;;;;;;;;;;9.60;61.05;101870.88;6057688;23;98163;-91
2020/12/21 01:43:25;;;;;;;;;;;;;;;9.65;60.98;101870.84;6027677;23;96529;-90
2020/12/21 01:45:54;;;;;;;;;;;;;;;9.58;60.99;101856.88;6053910;23;96515;-90
2020/12/21 01:48:23;;;;;;;;;;;;;;;9.60;60.98;101847.13;6053760;23;99359;-92
2020/12/21 01:51:05;;;;;;;;;;;;;;;9.67;60.81;101856.72;6054950;23;100433;-91
2020/12/21 01:56:20;;;;;;;;;;;;;;;9.83;60.30;101857.38;6058092;23;96281;-89
2020/12/21 01:58:47;;;;;;;;;;;;;;;9.71;nan;101861.06;6056591;23;100181;-91
2020/12/21 02:01:17;;;;;;;;;;;;;;;9.79;60.81;101853.03;6056180;23;99510;-91
2020/12/21 02:03:44;;;;;;;;;;;;;;;9.76;60.57;101851.31;6058170;23;95858;-82
2020/12/21 02:06:14;;;;;;;;;;;;;;;9.67;61.01;101851.44;6034368;23;96096;-85
2020/12/21 02:11:25;;;;;;;;;;;;;;;9.79;60.67;101845.09;6060544;23;98497;-79
2020/12/21 02:13:53;;;;;;;;;;;;;;;9.47;61.90;101848.19;6061507;23;96665;-90
2020/12/21 02:16:27;;;;;;;;;;;;;;;9.63;61.75;101855.03;6060760;23;96482;-91
2020/12/21 02:21:42;;;;;;;;;;;;;;;9.68;61.57;101863.75;6060006;23;98878;-92
2020/12/21 02:24:16;;;;;;;;;;;;;;;9.80;61.05;101865.31;6055629;23;96347;-91
2020/12/21 02:29:23;;;;;;;;;;;;;;;9.77;61.32;101874.19;6055466;23;98797;-90
2020/12/21 02:31:50;;;;;;;;;;;;;;;9.91;60.55;101874.81;6055948;23;99267;-92
2020/12/21 02:37:14;;;;;;;;;;;;;;;9.79;61.43;101882.06;6056765;23;96583;-90
2020/12/21 02:42:21;;;;;;;;;;;;;;;9.76;62.02;101888.28;6052386;23;98513;-91
2020/12/21 02:50:10;;;;;;;;;;;;;;;9.92;61.42;101894.19;6051482;23;98750;-90
2020/12/21 02:55:27;;;;;;;;;;;;;;;10.26;60.14;101895.47;6058135;23;96476;-92
2020/12/21 02:57:54;;;;;;;;;;;;;;;10.09;60.52;101892.19;6058257;23;96522;-90
2020/12/21 03:00:21;;;;;;;;;;;;;;;10.21;60.39;101892.03;6054561;23;99074;-90
2020/12/21 03:02:49;;;;;;;;;;;;;;;10.30;60.06;101893.66;6057390;23;100357;-91
2020/12/21 03:05:15;;;;;;;;;;;;;;;10.27;60.35;101885.75;6058204;23;95930;-91
2020/12/21 03:07:42;;;;;;;;;;;;;;;10.29;60.25;101887.50;6084851;23;96748;-88
2020/12/21 03:10:09;;;;;;;;;;;;;;;10.09;60.63;101878.09;6084942;23;98303;-90
2020/12/21 03:12:36;;;;;;;;;;;;;;;10.18;60.63;101881.50;6062736;23;98806;-90
2020/12/21 03:15:06;;;;;;;;;;;;;;;10.18;60.38;101880.63;6089807;23;95930;-88
2020/12/21 03:17:37;;;;;;;;;;;;;;;10.22;60.44;101888.50;6089579;23;95978;-91
2020/12/21 03:20:06;;;;;;;;;;;;;;;10.12;60.37;101881.56;6084003;23;98738;-91
2020/12/21 03:22:32;;;;;;;;;;;;;;;10.27;60.39;101888.41;6055377;23;98429;-90
2020/12/21 03:25:00;;;;;;;;;;;;;;;10.20;60.11;101887.63;6084761;23;96388;-88
2020/12/21 03:27:27;;;;;;;;;;;;;;;10.30;60.42;101883.09;6086631;23;96092;-88
2020/12/21 03:30:02;;;;;;;;;;;;;;;10.06;60.57;101880.78;6088331;23;99536;-90
2020/12/21 03:35:17;;;;;;;;;;;;;;;10.25;60.69;101888.41;6080665;23;96583;-89
2020/12/21 03:40:27;;;;;;;;;;;;;;;10.23;60.40;101878.78;6084399;23;96877;-89
2020/12/21 03:42:54;;;;;;;;;;;;;;;10.21;60.31;101881.44;6082380;23;98161;-89
2020/12/21 03:45:26;;;;;;;;;;;;;;;10.45;59.87;101869.59;6085305;23;96701;-88
2020/12/21 03:50:34;;;;;;;;;;;;;;;10.33;60.21;101881.25;6087193;23;98935;-88
2020/12/21 03:53:00;;;;;;;;;;;;;;;10.38;59.94;101867.94;6086831;23;99080;-88
2020/12/21 03:55:27;;;;;;;;;;;;;;;10.17;60.62;101863.06;6088360;23;95938;-88
2020/12/21 03:57:53;;;;;;;;;;;;;;;10.38;59.69;101867.94;6083042;23;96635;-89
2020/12/21 04:03:06;;;;;;;;;;;;;;;10.30;60.21;101864.59;6078287;23;96807;-86
2020/12/21 04:05:35;;;;;;;;;;;;;;;10.42;59.67;101869.66;6089449;23;96554;-90
2020/12/21 04:10:44;;;;;;;;;;;;;;;10.62;59.26;101878.13;6059494;23;98593;-90
2020/12/21 04:13:20;;;;;;;;;;;;;;;10.59;59.09;101878.16;6060000;23;97866;-85
2020/12/21 04:15:46;;;;;;;;;;;;;;;10.32;59.99;101879.50;6038393;23;96135;-85
2020/12/21 04:18:13;;;;;;;;;;;;;;;10.41;59.72;101881.13;6032082;23;95879;-85
2020/12/21 04:20:40;;;;;;;;;;;;;;;10.29;60.17;101882.22;6006096;23;97769;-83
2020/12/21 04:25:47;;;;;;;;;;;;;;;10.37;59.82;101875.00;6028113;23;95917;-91
2020/12/21 04:28:18;;;;;;;;;;;;;;;10.07;61.13;101882.53;6022152;23;96501;-90
2020/12/21 04:33:29;;;;;;;;;;;;;;;10.23;60.63;101868.22;6018813;23;99210;-91
2020/12/21 04:36:00;;;;;;;;;;;;;;;10.29;60.34;101878.69;6020152;23;96617;-91
2020/12/21 04:38:27;;;;;;;;;;;;;;;10.29;60.41;101881.34;6022104;23;96742;-89
2020/12/21 04:40:55;;;;;;;;;;;;;;;10.34;59.88;101872.44;6021387;23;98128;-90
2020/12/21 04:46:05;;;;;;;;;;;;;;;10.46;60.11;101871.34;6021064;23;96784;-90
2020/12/21 04:48:38;;;;;;;;;;;;;;;10.36;59.62;101869.78;6004094;23;96625;-91
2020/12/21 04:51:07;;;;;;;;;;;;;;;10.44;59.47;101872.25;6029237;23;98870;-89
2020/12/21 04:53:34;;;;;;;;;;;;;;;10.38;59.89;101868.81;6004876;23;97939;-90
2020/12/21 04:56:02;;;;;;;;;;;;;;;10.45;59.78;101877.53;6030233;23;96473;-89
2020/12/21 04:58:29;;;;;;;;;;;;;;;10.30;59.79;101865.47;6003197;23;96110;-88
2020/12/21 05:00:57;;;;;;;;;;;;;;;10.29;60.26;101863.72;6028376;23;98130;-89
2020/12/21 05:03:27;;;;;;;;;;;;;;;10.22;60.46;101866.47;6022975;23;99611;-89
2020/12/21 05:06:16;;;;;;;;;;;;;;;10.38;59.88;101881.16;6027750;23;96203;-88
2020/12/21 05:09:02;;;;;;;;;;;;;;;10.33;60.40;101870.69;6029154;23;96206;-90
2020/12/21 05:11:32;;;;;;;;;;;;;;;10.29;60.02;101865.47;6026317;23;96840;-89
2020/12/21 05:14:15;;;;;;;;;;;;;;;9.99;60.94;101869.44;6028030;23;99735;-90
2020/12/21 05:16:42;;;;;;;;;;;;;;;10.41;59.84;101872.31;6026686;23;96535;-90
2020/12/21 05:24:48;;;;;;;;;;;;;;;10.12;60.66;101860.44;6026786;23;98811;-90
2020/12/21 05:32:40;;;;;;;;;;;;;;;10.17;60.64;101871.84;6027893;23;98407;-88
2020/12/21 05:35:07;;;;;;;;;;;;;;;10.10;60.78;101874.56;6004795;23;97712;-86
2020/12/21 05:37:40;;;;;;;;;;;;;;;10.17;60.39;101868.34;6030678;23;97312;-85
2020/12/21 05:40:08;;;;;;;;;;;;;;;9.92;60.92;101870.41;6030494;23;96488;-88
2020/12/21 05:42:51;;;;;;;;;;;;;;;10.43;59.86;101871.41;6028638;23;98960;-89
2020/12/21 05:45:29;;;;;;;;;;;;;;;10.02;60.67;101871.16;6002177;23;97506;-89
2020/12/21 05:47:57;;;;;;;;;;;;;;;10.05;60.50;101873.75;6029247;23;97674;-89
2020/12/21 05:50:24;;;;;;;;;;;;;;;10.12;60.47;101870.13;6028785;23;96790;-89
2020/12/21 05:52:58;;;;;;;;;;;;;;;9.95;60.85;101873.91;6029419;23;99065;-87
2020/12/21 05:55:24;;;;;;;;;;;;;;;10.29;59.92;101874.28;6029904;23;98244;-84
2020/12/21 05:57:51;;;;;;;;;;;;;;;10.26;59.53;101881.38;6030449;23;97882;-90
2020/12/21 06:00:21;;;;;;;;;;;;;;;10.12;60.02;101875.41;6030329;23;96034;-85
2020/12/21 06:02:55;;;;;;;;;;;;;;;9.93;60.61;101869.53;6029843;23;99522;-84
2020/12/21 06:05:30;;;;;;;;;;;;;;;10.08;60.10;101863.16;6029709;23;99061;-83
2020/12/21 06:08:02;;;;;;;;;;;;;;;9.98;60.27;101863.28;6030083;23;96122;-89
2020/12/21 06:13:15;;;;;;;;;;;;;;;9.77;60.96;101871.53;6026923;23;98477;-88
2020/12/21 06:15:46;;;;;;;;;;;;;;;9.83;60.87;101884.66;6029768;23;97745;-85
2020/12/21 06:18:13;;;;;;;;;;;;;;;9.79;60.84;101882.94;6030848;23;96173;-89
2020/12/21 06:20:43;;;;;;;;;;;;;;;10.07;60.01;101879.88;6031004;23;96025;-87
2020/12/21 06:23:16;;;;;;;;;;;;;;;9.79;61.00;101882.94;6029668;23;99708;-81
2020/12/21 06:28:29;;;;;;;;;;;;;;;9.91;60.43;101887.19;6030177;23;97392;-90
2020/12/21 06:31:10;;;;;;;;;;;;;;;9.82;60.39;101888.19;6031128;23;96028;-89
2020/12/21 06:33:39;;;;;;;;;;;;;;;9.82;60.73;101895.22;6029296;23;96624;-84
2020/12/21 06:36:06;;;;;;;;;;;;;;;9.96;60.03;101886.22;6029691;23;96659;-89
2020/12/21 06:38:44;;;;;;;;;;;;;;;9.85;60.53;101893.41;6005493;23;95957;-84
2020/12/21 06:41:15;;;;;;;;;;;;;;;9.76;60.49;101890.03;6029947;23;95992;-88
2020/12/21 06:46:51;;;;;;;;;;;;;;;9.59;61.04;101900.81;6028125;23;98582;-87
2020/12/21 06:49:33;;;;;;;;;;;;;;;9.85;60.37;101898.69;6030508;23;96192;-86
2020/12/21 06:55:19;;;;;;;;;;;;;;;9.90;59.85;101902.16;6028729;23;98944;-85
2020/12/21 07:00:58;;;;;;;;;;;;;;;9.50;61.05;101909.72;6016544;23;96024;-84
2020/12/21 07:08:59;;;;;;;;;;;;;;;9.62;60.08;101911.34;6026963;23;98750;-84
2020/12/21 07:11:29;;;;;;;;;;;;;;;9.45;60.80;101914.16;6032275;23;96359;-85
2020/12/21 07:17:08;;;;;;;;;;;;;;;9.59;59.89;101917.50;6028962;23;98805;-85
2020/12/21 07:19:36;;;;;;;;;;;;;;;9.59;60.48;101927.19;6029463;23;98400;-91
2020/12/21 07:22:17;;;;;;;;;;;;;;;9.29;60.94;101928.44;6030231;23;95967;-82
2020/12/21 07:24:46;;;;;;;;;;;;;;;9.46;60.76;101933.50;6028037;23;96030;-89
2020/12/21 07:29:53;;;;;;;;;;;;;;;9.69;59.51;101941.16;6030040;23;98484;-89
2020/12/21 07:32:26;;;;;;;;;;;;;;;9.76;59.09;101925.22;6006457;23;96071;-88
2020/12/21 07:34:53;;;;;;;;;;;;;;;9.48;59.91;101937.00;6031558;23;96671;-87
2020/12/21 07:37:19;;;;;;;;;;;;;;;9.27;60.26;101931.97;6030604;23;98142;-87
2020/12/21 07:39:48;;;;;;;;;;;;;;;9.42;59.77;101931.81;6030040;23;99260;-89
2020/12/21 07:42:18;;;;;;;;;;;;;;;9.31;60.24;101937.22;6031700;23;95812;-89
2020/12/21 07:44:48;;;;;;;;;;;;;;;9.49;60.01;101936.13;6004570;23;96925;-88
2020/12/21 07:47:16;;;;;;;;;;;;;;;9.60;59.16;101943.00;6025670;23;98192;-91
2020/12/21 07:49:45;;;;;;;;;;;;;;;9.93;58.75;101943.47;6020303;23;98311;-90
2020/12/21 07:52:15;;;;;;;;;;;;;;;9.99;58.08;101943.38;6019824;23;96611;-86
2020/12/21 07:54:45;;;;;;;;;;;;;;;9.95;58.24;101941.69;6027042;23;96395;-88
2020/12/21 07:57:14;;;;;;;;;;;;;;;10.03;57.88;101952.16;6003100;23;97656;-86
2020/12/21 07:59:40;;;;;;;;;;;;;;;10.18;57.32;101949.28;6028310;23;99943;-87
2020/12/21 08:02:07;;;;;;;;;;;;;;;10.13;57.31;101940.53;6028831;23;95908;-88
2020/12/21 08:04:38;;;;;;;;;;;;;;;9.92;58.15;101942.59;6030538;23;96493;-88
2020/12/21 08:07:05;;;;;;;;;;;;;;;10.23;56.91;101942.19;6029324;23;96575;-88
2020/12/21 08:12:07;;;;;;;;;;;;;;;10.26;57.36;101947.41;5994536;23;99841;-88
2020/12/21 08:14:46;;;;;;;;;;;;;;;10.00;57.67;101951.28;6001713;23;96803;-88
2020/12/21 08:17:13;;;;;;;;;;;;;;;10.11;57.19;101948.47;5999473;23;98812;-86
2020/12/21 08:22:32;;;;;;;;;;;;;;;9.85;58.16;101958.53;5992853;23;95886;-87
2020/12/21 08:25:00;;;;;;;;;;;;;;;10.12;57.02;101959.91;6002779;23;96312;-87
2020/12/21 08:30:23;;;;;;;;;;;;;;;9.96;57.51;101960.16;5996595;23;96526;-88
2020/12/21 08:33:01;;;;;;;;;;;;;;;10.10;57.55;101967.88;5998521;23;96517;-88
2020/12/21 08:35:29;;;;;;;;;;;;;;;10.14;57.34;101963.41;5996151;23;96501;-87
2020/12/21 08:38:07;;;;;;;;;;;;;;;10.48;56.42;101958.53;5996677;23;97857;-89
2020/12/21 08:40:34;;;;;;;;;;;;;;;9.97;57.49;101951.34;5971224;23;98931;-87
2020/12/21 08:43:02;;;;;;;;;;;;;;;9.79;58.35;101951.56;5996675;23;96588;-87
2020/12/21 08:45:38;;;;;;;;;;;;;;;9.79;58.31;101964.75;5997837;23;96458;-88
2020/12/21 08:48:38;;;;;;;;;;;;;;;9.94;58.11;101964.56;5970129;23;100142;-88
2020/12/21 08:56:52;;;;;;;;;;;;;;;9.73;58.46;101967.47;5998733;23;96636;-88
2020/12/21 08:59:22;;;;;;;;;;;;;;;10.26;57.29;101969.41;5973598;23;98398;-88
2020/12/21 09:02:02;;;;;;;;;;;;;;;10.28;57.08;101969.41;5997676;23;97672;-88
2020/12/21 09:04:33;;;;;;;;;;;;;;;10.48;56.35;101963.81;5974023;23;96662;-87
2020/12/21 09:07:09;;;;;;;;;;;;;;;10.41;56.36;101965.69;5997638;23;96959;-88
2020/12/21 09:10:01;;;;;;;;;;;;;;;10.68;55.82;101959.97;5974771;23;97052;-88
2020/12/21 09:12:44;;;;;;;;;;;;;;;10.34;56.64;101964.91;6003313;23;99927;-88
2020/12/21 09:15:19;;;;;;;;;;;;;;;10.74;55.79;101962.50;6027228;23;96416;-89
2020/12/21 09:17:52;;;;;;;;;;;;;;;10.41;56.26;101973.59;6002792;23;96324;-88
2020/12/21 09:20:20;;;;;;;;;;;;;;;10.62;55.80;101973.28;6025765;23;97924;-89
2020/12/21 09:22:47;;;;;;;;;;;;;;;10.60;55.64;101975.06;6002858;23;96678;-89
2020/12/21 09:28:01;;;;;;;;;;;;;;;10.84;55.15;101970.25;6026173;23;96110;-88
2020/12/21 09:30:30;;;;;;;;;;;;;;;10.76;55.44;101975.69;6028558;23;99512;-87
2020/12/21 09:45:55;;;;;;;;;;;;;;;11.33;53.64;101970.25;6029688;23;99070;-89
2020/12/21 09:48:33;;;;;;;;;;;;;;;11.44;53.22;101966.47;6032802;23;96537;-86
2020/12/21 09:53:35;;;;;;;;;;;;;;;11.40;53.27;101962.16;6013581;23;100089;-87
2020/12/21 09:56:07;;;;;;;;;;;;;;;11.50;53.04;101955.78;6060560;23;97311;-87
2020/12/21 09:58:35;;;;;;;;;;;;;;;11.56;52.73;101955.66;6035358;23;96031;-84
2020/12/21 10:01:31;;;;;;;;;;;;;;;11.63;53.01;101948.44;6060024;23;96660;-83
2020/12/21 10:04:02;;;;;;;;;;;;;;;11.88;52.42;101952.34;6059645;23;98195;-85
2020/12/21 10:06:32;;;;;;;;;;;;;;;11.94;51.99;101941.66;6056225;23;100152;-82
2020/12/21 10:14:30;;;;;;;;;;;;;;;11.64;52.56;101931.66;5942105;23;100977;-87
2020/12/21 10:19:32;;;;;;;;;;;;;;;11.94;51.67;101936.34;5963542;23;100081;-88
2020/12/21 10:22:00;;;;;;;;;;;;;;;11.91;52.00;101927.59;6053941;23;100354;-89
2020/12/21 10:24:35;;;;;;;;;;;;;;;12.01;51.81;101930.91;6052312;23;99203;-89
2020/12/21 10:29:52;;;;;;;;;;;;;;;11.80;52.72;101927.84;6051434;23;96364;-89
2020/12/21 10:32:26;;;;;;;;;;;;;;;11.69;52.67;101918.31;6055015;23;98139;-88
2020/12/21 10:34:54;;;;;;;;;;;;;;;11.97;52.25;101919.50;6051351;23;98609;-88
2020/12/21 10:37:21;;;;;;;;;;;;;;;12.19;51.50;101915.47;6053321;23;96533;-88
2020/12/21 10:39:51;;;;;;;;;;;;;;;12.25;51.59;101915.31;6026722;23;96664;-86
2020/12/21 10:42:22;;;;;;;;;;;;;;;12.10;51.78;101915.66;6050199;23;97940;-87
2020/12/21 10:44:48;;;;;;;;;;;;;;;11.92;52.01;101910.78;6049512;23;99678;-87
2020/12/21 10:47:14;;;;;;;;;;;;;;;11.78;52.57;101904.94;6022637;23;96603;-88
2020/12/21 10:49:42;;;;;;;;;;;;;;;12.03;52.07;101898.16;6025065;23;96601;-88
2020/12/21 10:52:27;;;;;;;;;;;;;;;11.96;52.24;101900.09;6050947;23;97016;-89
2020/12/21 11:00:17;;;;;;;;;;;;;;;11.83;52.72;101888.03;6043549;23;96944;-89
2020/12/21 11:02:43;;;;;;;;;;;;;;;12.28;51.43;101877.25;6052410;23;97907;-87
2020/12/21 11:05:23;;;;;;;;;;;;;;;12.45;50.90;101885.66;6049315;23;99459;-88
2020/12/21 11:07:50;;;;;;;;;;;;;;;12.53;51.03;101882.81;6055190;23;96657;-85
2020/12/21 11:10:18;;;;;;;;;;;;;;;11.66;52.58;101884.00;6057142;23;96318;-88
2020/12/21 11:12:45;;;;;;;;;;;;;;;11.91;52.19;101878.13;6055125;23;100128;-87
2020/12/21 11:15:31;;;;;;;;;;;;;;;11.91;52.61;101866.66;6051786;23;101700;-86
2020/12/21 11:26:04;;;;;;;;;;;;;;;12.28;51.78;101871.94;6032987;23;97491;-88
2020/12/21 11:28:30;;;;;;;;;;;;;;;12.53;51.13;101861.63;6051491;23;96513;-87
2020/12/21 11:33:21;;;;;;;;;;;;;;;11.87;52.43;101870.31;6047646;23;125292;-86
2020/12/21 11:35:47;;;;;;;;;;;;;;;11.69;53.23;101870.66;6048190;23;96915;-85
2020/12/21 11:40:59;;;;;;;;;;;;;;;11.67;53.37;101867.19;6047580;23;96879;-88
2020/12/21 11:43:26;;;;;;;;;;;;;;;11.50;53.47;101876.38;6052443;23;99421;-87
2020/12/21 11:45:57;;;;;;;;;;;;;;;11.21;54.64;101881.41;6024006;23;98761;-87
2020/12/21 11:48:28;;;;;;;;;;;;;;;11.73;53.19;101870.59;6049635;23;96822;-87
2020/12/21 11:51:10;;;;;;;;;;;;;;;11.70;53.46;101870.63;6054091;23;96670;-87
2020/12/21 11:53:40;;;;;;;;;;;;;;;11.36;53.93;101869.63;6058459;23;96947;-87
2020/12/21 11:56:09;;;;;;;;;;;;;;;11.57;53.70;101877.97;6049507;23;96515;-86
2020/12/21 11:58:56;;;;;;;;;;;;;;;11.51;53.85;101872.81;6059550;23;96106;-84
2020/12/21 12:01:25;;;;;;;;;;;;;;;11.20;54.35;101871.72;6057467;23;96063;-86
2020/12/21 12:03:51;;;;;;;;;;;;;;;10.87;55.52;101867.09;6052781;23;98360;-86
2020/12/21 12:06:24;;;;;;;;;;;;;;;10.96;55.52;101861.63;6050504;23;99537;-87
2020/12/21 12:08:54;;;;;;;;;;;;;;;11.20;54.61;101869.06;6059155;23;96667;-87
2020/12/21 12:11:28;;;;;;;;;;;;;;;11.56;53.72;101860.34;6059900;23;96506;-81
2020/12/21 12:13:54;;;;;;;;;;;;;;;11.53;53.74;101857.78;6059453;23;98113;-86
2020/12/21 12:16:20;;;;;;;;;;;;;;;11.40;54.04;101861.59;6059607;23;97953;-85
2020/12/21 12:21:29;;;;;;;;;;;;;;;11.39;53.91;101851.91;6059084;23;96229;-85
2020/12/21 12:23:55;;;;;;;;;;;;;;;11.41;53.63;101849.25;6049085;23;97908;-85
2020/12/21 12:26:21;;;;;;;;;;;;;;;11.79;53.17;101846.66;6048298;23;97062;-85
2020/12/21 12:28:47;;;;;;;;;;;;;;;11.81;53.05;101849.25;6039153;23;96697;-87
2020/12/21 12:31:20;;;;;;;;;;;;;;;11.41;53.88;101850.13;6050227;23;96801;-88
2020/12/21 12:33:57;;;;;;;;;;;;;;;11.25;54.26;101848.69;6053726;23;98693;-88
2020/12/21 12:42:15;;;;;;;;;;;;;;;11.36;54.17;101838.72;6050474;23;96056;-86
2020/12/21 12:44:47;;;;;;;;;;;;;;;11.35;54.52;101833.50;6051500;23;96990;-86
2020/12/21 12:47:15;;;;;;;;;;;;;;;11.82;53.22;101828.00;6049098;23;98892;-86
2020/12/21 12:49:42;;;;;;;;;;;;;;;11.51;53.64;101832.25;6052152;23;96541;-87
2020/12/21 12:52:24;;;;;;;;;;;;;;;11.54;53.90;101826.91;6051418;23;96783;-87
2020/12/21 12:58:04;;;;;;;;;;;;;;;11.59;53.49;101832.94;6047721;23;98635;-87
2020/12/21 13:11:07;;;;;;;;;;;;;;;12.32;51.49;101828.56;6042261;23;96117;-87
2020/12/21 13:13:48;;;;;;;;;;;;;;;12.04;52.00;101828.38;5947114;23;100103;-86
2020/12/21 13:16:33;;;;;;;;;;;;;;;11.83;52.91;101826.25;6059160;23;98772;-88
2020/12/21 13:38:01;;;;;;;;;;;;;;;12.51;50.73;101805.09;5915636;23;97046;-86
2020/12/21 13:40:33;;;;;;;;;;;;;;;12.53;50.75;101805.94;6014926;23;99529;-89
2020/12/21 13:43:17;;;;;;;;;;;;;;;12.88;50.00;101800.53;6056719;23;96707;-87
2020/12/21 13:45:43;;;;;;;;;;;;;;;12.50;50.58;101806.00;6031510;23;96343;-86
2020/12/21 13:48:11;;;;;;;;;;;;;;;12.56;50.31;101801.41;6055317;23;100544;-87
2020/12/21 13:50:54;;;;;;;;;;;;;;;12.68;50.09;101800.19;6056525;23;99792;-86
2020/12/21 13:53:21;;;;;;;;;;;;;;;12.21;51.27;101796.16;6056108;23;96272;-85
2020/12/21 13:55:52;;;;;;;;;;;;;;;12.09;51.84;101794.69;6052629;23;96646;-86
2020/12/21 13:58:18;;;;;;;;;;;;;;;11.93;51.93;101802.16;6026924;23;98530;-85
2020/12/21 14:00:45;;;;;;;;;;;;;;;11.82;52.32;101792.72;6046286;23;99940;-85
2020/12/21 14:03:17;;;;;;;;;;;;;;;11.76;52.65;101791.09;6049168;23;96698;-86
2020/12/21 14:05:43;;;;;;;;;;;;;;;11.45;53.63;101797.97;6047553;23;96706;-85
2020/12/21 14:08:10;;;;;;;;;;;;;;;11.27;54.15;101801.03;6047886;23;99712;-86
2020/12/21 14:10:41;;;;;;;;;;;;;;;11.10;54.58;101796.06;6050061;23;98173;-85
2020/12/21 14:13:11;;;;;;;;;;;;;;;11.15;54.39;101794.22;6051681;23;96651;-85
2020/12/21 14:15:38;;;;;;;;;;;;;;;11.15;54.63;101789.81;6056321;23;96469;-84
2020/12/21 14:18:05;;;;;;;;;;;;;;;11.29;54.23;101793.94;6050719;23;98930;-85
2020/12/21 14:20:31;;;;;;;;;;;;;;;10.92;55.19;101789.41;6050666;23;100407;-87
2020/12/21 14:22:58;;;;;;;;;;;;;;;11.25;54.47;101779.03;6052780;23;96534;-84
2020/12/21 14:25:26;;;;;;;;;;;;;;;11.14;54.39;101780.13;6053915;23;96556;-85
2020/12/21 14:27:55;;;;;;;;;;;;;;;10.94;54.96;101784.09;6052131;23;100424;-84
2020/12/21 14:30:23;;;;;;;;;;;;;;;11.04;54.71;101786.50;6047073;23;98451;-83
2020/12/21 14:32:49;;;;;;;;;;;;;;;10.95;54.91;101783.19;6045870;23;96711;-84
2020/12/21 14:37:59;;;;;;;;;;;;;;;10.98;54.80;101775.19;6044574;23;98832;-86
2020/12/21 14:40:25;;;;;;;;;;;;;;;10.97;54.79;101768.16;6041913;23;100606;-83
2020/12/21 14:42:54;;;;;;;;;;;;;;;10.86;55.03;101771.03;6048588;23;96671;-84
2020/12/21 14:45:25;;;;;;;;;;;;;;;10.93;55.19;101774.41;6057030;23;96520;-84
2020/12/21 14:47:52;;;;;;;;;;;;;;;10.87;54.93;101779.84;6032498;23;96445;-84
2020/12/21 14:50:18;;;;;;;;;;;;;;;10.87;54.92;101782.47;6057203;23;100371;-83
2020/12/21 14:52:45;;;;;;;;;;;;;;;10.82;55.29;101776.41;6056454;23;95927;-83
2020/12/21 14:55:13;;;;;;;;;;;;;;;10.84;55.43;101778.09;6057930;23;96836;-84
2020/12/21 15:00:19;;;;;;;;;;;;;;;10.73;55.58;101777.47;6058830;23;98627;-83
2020/12/21 15:02:47;;;;;;;;;;;;;;;10.94;55.06;101776.16;6059998;23;96623;-83
2020/12/21 15:05:13;;;;;;;;;;;;;;;10.76;55.52;101772.97;6058471;23;96629;-83
2020/12/21 15:07:40;;;;;;;;;;;;;;;10.77;55.60;101781.78;6029090;23;98029;-84
2020/12/21 15:10:07;;;;;;;;;;;;;;;10.76;55.54;101767.69;6052879;23;100263;-83
2020/12/21 15:12:33;;;;;;;;;;;;;;;10.54;56.32;101763.75;6053172;23;96705;-83
2020/12/21 15:15:01;;;;;;;;;;;;;;;10.16;57.47;101771.47;6056427;23;96461;-84
2020/12/21 15:17:27;;;;;;;;;;;;;;;10.59;56.29;101767.16;6047069;23;98807;-83
2020/12/21 15:22:49;;;;;;;;;;;;;;;10.28;57.04;101760.72;6048060;23;96637;-82
2020/12/21 15:25:15;;;;;;;;;;;;;;;10.40;56.70;101763.13;6050616;23;96729;-82
2020/12/21 15:27:42;;;;;;;;;;;;;;;10.57;56.29;101765.44;6018565;23;98798;-82
2020/12/21 15:30:08;;;;;;;;;;;;;;;10.65;56.13;101753.81;6044304;23;100522;-82
2020/12/21 15:32:34;;;;;;;;;;;;;;;10.50;56.61;101750.63;6045459;23;96662;-82
2020/12/21 15:35:01;;;;;;;;;;;;;;;10.42;57.03;101748.13;6045657;23;96816;-82
2020/12/21 15:37:29;;;;;;;;;;;;;;;10.49;56.84;101749.75;6046170;23;98497;-84
2020/12/21 15:39:55;;;;;;;;;;;;;;;10.37;56.87;101748.19;6045401;23;100612;-83
2020/12/21 15:42:26;;;;;;;;;;;;;;;10.26;56.97;101749.28;6050165;23;96664;-84
2020/12/21 15:44:52;;;;;;;;;;;;;;;10.51;56.61;101741.75;6044068;23;96716;-84
2020/12/21 15:47:18;;;;;;;;;;;;;;;10.35;57.03;101739.44;6047188;23;99253;-84
2020/12/21 15:49:44;;;;;;;;;;;;;;;10.21;57.12;101732.66;6045298;23;100242;-83
2020/12/21 15:52:13;;;;;;;;;;;;;;;10.27;57.20;101729.91;6045375;23;96583;-83
2020/12/21 15:54:39;;;;;;;;;;;;;;;10.22;57.27;101729.13;6045762;23;96839;-83
2020/12/21 15:57:07;;;;;;;;;;;;;;;10.20;57.29;101726.50;6049048;23;98411;-83
2020/12/21 15:59:34;;;;;;;;;;;;;;;10.16;57.42;101724.81;6048349;23;99798;-86
2020/12/21 16:02:02;;;;;;;;;;;;;;;9.98;58.24;101720.69;6040170;23;97251;-83
2020/12/21 16:04:28;;;;;;;;;;;;;;;9.97;58.08;101708.41;6041598;23;97403;-85
2020/12/21 16:06:55;;;;;;;;;;;;;;;10.06;58.15;101710.00;6021238;23;99031;-86
2020/12/21 16:09:24;;;;;;;;;;;;;;;10.12;57.77;101701.09;6046165;23;98104;-84
2020/12/21 16:11:51;;;;;;;;;;;;;;;9.95;58.48;101699.66;6048459;23;96704;-84
2020/12/21 16:14:38;;;;;;;;;;;;;;;10.01;57.96;101698.66;6050159;23;96749;-84
2020/12/21 16:17:09;;;;;;;;;;;;;;;10.09;57.70;101698.53;6046509;23;97954;-87
2020/12/21 16:19:36;;;;;;;;;;;;;;;10.27;57.21;101692.91;6046372;23;99567;-85
2020/12/21 16:22:03;;;;;;;;;;;;;;;10.19;57.33;101697.47;6048559;23;96899;-85
2020/12/21 16:24:30;;;;;;;;;;;;;;;9.91;58.01;101694.47;6044023;23;96859;-84
2020/12/21 16:27:00;;;;;;;;;;;;;;;9.88;58.28;101692.72;6044617;23;98110;-84
2020/12/21 16:29:27;;;;;;;;;;;;;;;9.80;58.36;101688.47;6041313;23;98321;-85
2020/12/21 16:31:54;;;;;;;;;;;;;;;10.23;57.25;101688.63;6043141;23;96653;-84
2020/12/21 16:34:20;;;;;;;;;;;;;;;10.16;57.33;101677.25;6044164;23;96844;-84
2020/12/21 16:36:47;;;;;;;;;;;;;;;10.07;57.63;101673.91;6043121;23;99902;-85
2020/12/21 16:41:56;;;;;;;;;;;;;;;9.97;57.62;101676.72;6047483;23;96429;-85
2020/12/21 16:44:25;;;;;;;;;;;;;;;9.85;57.88;101682.22;6045190;23;96697;-85
2020/12/21 16:46:52;;;;;;;;;;;;;;;9.75;58.40;101674.50;6046430;23;98609;-84